Airfield :
LOGIN :

Register | Disclaimer

   EN    FR    IT 

 










Legend :    VFR   Marginal VFR   IFR   Intensive IFR   Very Intensive IFR
Visi :
Ceiling :
>= 8 km
>= 3000ft
5 to 8 km
1000 to 3000 ft
1500m to 5 km
500 to 1000 ft
800 to 1500m
200 to 500 ft
< 800m
< 200 ft
Symbols :   Thunderstorms  Fog  Heavy snow  Heavy precipitations  Wind > 20 kt
SIGMETs :     Misc.  Thunderstorms  Icing  Turbulence  Mountain Waves  Volcanic Ashes







- Airport Elevation : 636 ft


LPBJ - Beja Air Base

CURRENT METAR :
  • 211500Z 20019KT 9999 SCT025 27/15 Q1011

EXPIRED METARs :
  • 211400Z 21017KT 9999 SCT025 27/17 Q1012
  • 211300Z 20015KT 160V230 9999 FEW015 SCT022 25/19 Q1012

TAF TAF LPBJ
Valid from the 21 at 12:00 until the 22 at 12:00 UTC


211109Z 2112/2212 21012KT 9999 SCT008 SCT015
PROB40
TEMPO 2112/2115 SCT004 BKN008
TEMPO 2113/2118 21015G25KT
TEMPO 2115/2123 2500 RADZ BR BKN006
PROB30
TEMPO 2119/2123 1200 +RADZ BR BKN003
BECMG 2121/2124 31008KT SCT012
PROB40 2204/2209 VRB02KT 0500 FG BKN002
No reported NOTAMs for that airfield.



MET'MAP, your aeronautical weather chart ! - Copyright ORBIFLY December 2007 - Disclaimer

ORBIFLY MET'MAP TEAM :

Programming & Development : Alexandra Zaïnal
Concept & Development : Baudouin d'Aumeries
Co-Development & Prog : Marc-Olivier Méhu
Technical & hardware support : Manuel Goepfert

Contact : metmap@orbifly.com




SOURCES & CREDITS :

   NOAA